This is the latest recevied weather packets stored in our database for station/object VU3KEB-1. If no packets are shown the sender has not sent any weather packets the latest 10 day(s).
| Time | Temp. | Humidity | Pressure | Rain* | Wind** | Luminosity | Snow |
|---|---|---|---|---|---|---|---|
| 1787826605 | 26.11° C | 76% | 1030.8 hPa | - | - | - | - |
| 1787825385 | 27.22° C | 71% | 1030.9 hPa | - | - | - | - |
| 1787824171 | 27.78° C | 71% | 1030.9 hPa | - | - | - | - |
| 1787822956 | 30.56° C | 71% | 1030.9 hPa | - | - | - | - |
| 1787821741 | 31.67° C | 50% | 1031.3 hPa | - | - | - | - |
| 1787820527 | 31.67° C | 50% | 1031.3 hPa | - | - | - | - |
| 1787819312 | 31.11° C | 50% | 1031.3 hPa | - | - | - | - |
| 1787818095 | 30.56° C | 51% | 1032.2 hPa | - | - | - | - |
| 1787816875 | 30.56° C | 51% | 1032.2 hPa | - | - | - | - |
| 1787815660 | 30° C | 52% | 1032.1 hPa | - | - | - | - |
| 1787814446 | 29.44° C | 51% | 1034 hPa | - | - | - | - |
| 1787813227 | 29.44° C | 51% | 1034 hPa | - | - | - | - |
| 1787812013 | 29.44° C | 51% | 1034 hPa | - | - | - | - |
| 1787810794 | 29.44° C | 53% | 1034.8 hPa | - | - | - | - |
| 1787809579 | 28.89° C | 53% | 1034.8 hPa | - | - | - | - |
| 1787808366 | 27.78° C | 53% | 1034.8 hPa | - | - | - | - |
| 1787807152 | 27.22° C | 59% | 1034.8 hPa | - | - | - | - |
| 1787805937 | 27.22° C | 59% | 1034.8 hPa | - | - | - | - |
| 1787804724 | 26.67° C | 59% | 1034.8 hPa | - | - | - | - |
| 1787749420 | 25.56° C | 73% | 1031.2 hPa | - | - | - | - |
| 1787748206 | 25.56° C | 73% | 1031.2 hPa | - | - | - | - |
| 1787746993 | 26.11° C | 73% | 1031.2 hPa | - | - | - | - |
| 1787745779 | 22.78° C | 87% | 1031.5 hPa | - | - | - | - |
| 1787744564 | 25° C | 87% | 1031.5 hPa | - | - | - | - |
| 1787743350 | 26.67° C | 87% | 1031.5 hPa | - | - | - | - |
* Rain since midnight (hover to see other rain measurements)
** Current wind speed in m/s (hover to see current wind gust speed)